createdAt,value
2023-04-04T00:00:35.140Z,90479.34
2023-04-04T00:06:05.036Z,90486.50
2023-04-04T00:08:49.785Z,90480.06
2023-04-04T00:11:34.774Z,90471.16
2023-04-04T00:14:19.487Z,90467.44
2023-04-04T00:17:04.349Z,90468.47
2023-04-04T00:19:49.331Z,90469.69
2023-04-04T00:22:34.172Z,90470.94
2023-04-04T00:25:19.718Z,90466.47
2023-04-04T00:28:04.690Z,90462.75
2023-04-04T00:30:49.564Z,90459.53
2023-04-04T00:33:34.633Z,90462.25
2023-04-04T00:36:19.429Z,90451.63
2023-04-04T00:39:04.318Z,90452.59
2023-04-04T00:41:49.168Z,90455.06
2023-04-04T00:44:33.977Z,90459.22
2023-04-04T00:47:18.924Z,90460.47
2023-04-04T00:50:03.812Z,90451.59
2023-04-04T00:52:48.844Z,90454.81
2023-04-04T00:55:33.646Z,90449.13
2023-04-04T00:58:18.480Z,90445.91
2023-04-04T01:01:03.457Z,90443.44
2023-04-04T01:03:48.367Z,90438.72
2023-04-04T01:06:33.291Z,90438.97
2023-04-04T01:09:18.197Z,90435.50
2023-04-04T01:12:02.947Z,90442.69
2023-04-04T01:14:47.930Z,90434.25
2023-04-04T01:17:33.032Z,90435.97
2023-04-04T01:20:17.867Z,90436.97
2023-04-04T01:23:02.850Z,90436.44
2023-04-04T01:25:47.436Z,90433.00
2023-04-04T01:28:32.383Z,90433.75
2023-04-04T01:31:17.324Z,90429.78
2023-04-04T01:34:02.260Z,90432.53
2023-04-04T01:36:47.098Z,90427.81
2023-04-04T01:39:33.086Z,90433.75
2023-04-04T01:42:17.845Z,90426.84
2023-04-04T01:45:02.738Z,90428.31
2023-04-04T01:47:47.738Z,90426.09
2023-04-04T01:50:32.555Z,90429.06
2023-04-04T01:53:17.403Z,90430.28
2023-04-04T01:56:02.305Z,90422.38
2023-04-04T01:58:47.349Z,90419.16
2023-04-04T02:01:32.130Z,90422.88
2023-04-04T02:04:17.033Z,90425.84
2023-04-04T02:07:01.960Z,90422.16
2023-04-04T02:09:46.811Z,90421.88
2023-04-04T02:12:31.833Z,90420.16
2023-04-04T02:15:16.609Z,90419.66
2023-04-04T02:18:02.189Z,90415.94
2023-04-04T02:20:46.989Z,90416.41
2023-04-04T02:23:31.726Z,90410.50
2023-04-04T02:26:16.631Z,90407.25
2023-04-04T02:29:01.519Z,90405.03
2023-04-04T02:31:46.430Z,90411.22
2023-04-04T02:34:31.146Z,90407.25
2023-04-04T02:37:16.152Z,90409.47
2023-04-04T02:40:00.921Z,90401.78
2023-04-04T02:42:45.939Z,90411.69
2023-04-04T02:45:30.809Z,90402.53
2023-04-04T02:48:15.726Z,90402.50
2023-04-04T02:51:00.506Z,90403.50
2023-04-04T02:53:45.356Z,90404.47
2023-04-04T02:56:30.329Z,90402.50
2023-04-04T02:59:15.189Z,90401.00
2023-04-04T03:02:00.277Z,90405.66
2023-04-04T03:04:45.242Z,90404.22
2023-04-04T03:07:29.852Z,90404.94
2023-04-04T03:10:14.848Z,90401.22
2023-04-04T03:12:59.653Z,90400.47
2023-04-04T03:15:47.296Z,90397.50
2023-04-04T03:18:32.351Z,90403.09
2023-04-04T03:21:17.278Z,90403.84
2023-04-04T03:24:02.015Z,90404.81
2023-04-04T03:26:47.014Z,90408.25
2023-04-04T03:29:31.862Z,90408.22
2023-04-04T03:32:16.751Z,90404.25
2023-04-04T03:35:01.605Z,90406.53
2023-04-04T03:37:46.580Z,90402.06
2023-04-04T03:40:31.521Z,90403.53
2023-04-04T03:43:16.336Z,90392.19
2023-04-04T03:46:01.352Z,90396.13
2023-04-04T03:48:46.093Z,90395.38
2023-04-04T03:51:31.060Z,90399.06
2023-04-04T03:54:16.062Z,90399.06
2023-04-04T03:57:01.093Z,90401.03
2023-04-04T03:59:46.074Z,90395.84
2023-04-04T04:02:30.923Z,90397.09
2023-04-04T04:05:15.826Z,90391.63
2023-04-04T04:08:00.813Z,90395.56
2023-04-04T04:10:45.762Z,90399.72
2023-04-04T04:13:30.611Z,90400.72
2023-04-04T04:16:15.640Z,90392.50
2023-04-04T04:19:00.556Z,90395.50
2023-04-04T04:21:45.584Z,90393.00
2023-04-04T04:24:30.509Z,90393.28
2023-04-04T04:27:15.316Z,90393.31
2023-04-04T04:30:00.268Z,90391.56
2023-04-04T04:32:45.035Z,90388.84
2023-04-04T04:35:30.014Z,90385.41
2023-04-04T04:38:14.814Z,90382.19
2023-04-04T04:40:59.685Z,90388.84
2023-04-04T04:43:44.683Z,90391.56
2023-04-04T04:46:29.710Z,90396.47
2023-04-04T04:49:14.540Z,90393.50
2023-04-04T04:51:59.519Z,90393.47
2023-04-04T04:54:44.601Z,90399.88
2023-04-04T04:57:29.498Z,90397.13
2023-04-04T05:00:14.412Z,90395.13
2023-04-04T05:02:59.374Z,90396.88
2023-04-04T05:05:44.171Z,90400.56
2023-04-04T05:08:29.203Z,90404.50
2023-04-04T05:11:14.236Z,90404.47
2023-04-04T05:13:59.243Z,90400.00
2023-04-04T05:16:44.331Z,90397.81
2023-04-04T05:19:29.792Z,90410.59
2023-04-04T05:22:14.755Z,90409.75
2023-04-04T05:24:59.857Z,90406.56
2023-04-04T05:27:44.680Z,90407.53
2023-04-04T05:30:29.645Z,90415.44
2023-04-04T05:33:14.413Z,90424.09
2023-04-04T05:35:59.440Z,90422.94
2023-04-04T05:38:44.404Z,90422.19
2023-04-04T05:41:29.020Z,90419.47
2023-04-04T05:44:14.010Z,90427.66
2023-04-04T05:46:58.989Z,90424.66
2023-04-04T05:49:43.943Z,90438.69
2023-04-04T05:52:29.014Z,90432.03
2023-04-04T05:55:14.099Z,90439.69
2023-04-04T05:57:59.051Z,90443.81
2023-04-04T06:00:43.887Z,90445.13
2023-04-04T06:03:29.018Z,90445.81
2023-04-04T06:06:13.709Z,90449.06
2023-04-04T06:08:58.729Z,90456.25
2023-04-04T06:11:43.577Z,90455.75
2023-04-04T06:14:28.573Z,90457.13
2023-04-04T06:17:13.376Z,90456.84
2023-04-04T06:19:58.349Z,90458.56
2023-04-04T06:22:43.201Z,90459.13
2023-04-04T06:25:28.079Z,90463.38
2023-04-04T06:28:13.014Z,90467.72
2023-04-04T06:30:57.760Z,90468.22
2023-04-04T06:33:42.626Z,90467.84
2023-04-04T06:36:27.577Z,90469.03
2023-04-04T06:39:12.520Z,90475.81
2023-04-04T06:41:57.432Z,90460.34
2023-04-04T06:44:42.323Z,90475.91
2023-04-04T06:47:27.281Z,90463.81
2023-04-04T06:50:12.212Z,90467.00
2023-04-04T06:52:57.244Z,90470.00
2023-04-04T06:55:42.092Z,90474.53
2023-04-04T06:58:27.193Z,90479.53
2023-04-04T07:01:12.029Z,90478.09
2023-04-04T07:03:56.966Z,90477.66
2023-04-04T07:06:41.771Z,90472.72
2023-04-04T07:09:29.501Z,90472.63
2023-04-04T07:12:14.739Z,90482.63
2023-04-04T07:14:59.651Z,90487.03
2023-04-04T07:17:44.772Z,90483.19
2023-04-04T07:20:30.820Z,90481.03
2023-04-04T07:23:15.702Z,90482.91
2023-04-04T07:26:00.690Z,90483.97
2023-04-04T07:28:45.590Z,90480.41
2023-04-04T07:31:30.667Z,90475.09
2023-04-04T07:34:15.569Z,90478.72
2023-04-04T07:37:00.496Z,90479.72
2023-04-04T07:39:45.523Z,90478.97
2023-04-04T07:42:30.359Z,90476.59
2023-04-04T07:45:15.493Z,90477.56
2023-04-04T07:48:00.675Z,90477.28
2023-04-04T07:50:45.588Z,90474.00
2023-04-04T07:53:30.197Z,90468.84
2023-04-04T07:56:15.296Z,90458.56
2023-04-04T07:59:00.329Z,90460.44
2023-04-04T08:01:46.317Z,90456.41
2023-04-04T08:04:31.123Z,90453.06
2023-04-04T08:07:16.148Z,90450.25
2023-04-04T08:10:01.086Z,90450.59
2023-04-04T08:12:46.013Z,90439.88
2023-04-04T08:15:30.898Z,90439.56
2023-04-04T08:18:15.768Z,90442.78
2023-04-04T08:21:00.742Z,90440.34
2023-04-04T08:23:45.621Z,90436.38
2023-04-04T08:26:30.638Z,90438.97
2023-04-04T08:29:15.508Z,90439.94
2023-04-04T08:32:00.543Z,90438.41
2023-04-04T08:34:45.427Z,90444.63
2023-04-04T08:37:30.199Z,90438.00
2023-04-04T08:40:15.020Z,90434.00
2023-04-04T08:42:59.916Z,90438.88
2023-04-04T08:45:44.944Z,90445.25
2023-04-04T08:48:29.801Z,90437.63
2023-04-04T08:51:14.718Z,90437.41
2023-04-04T08:53:59.650Z,90447.50
2023-04-04T08:56:44.656Z,90444.44
2023-04-04T08:59:29.705Z,90443.16
2023-04-04T09:02:14.610Z,90442.91
2023-04-04T09:05:06.327Z,90448.97
2023-04-04T09:07:52.105Z,90446.44
2023-04-04T09:10:36.984Z,90446.72
2023-04-04T09:13:21.771Z,90438.13
2023-04-04T09:16:06.771Z,90444.44
2023-04-04T09:18:51.569Z,90445.16
2023-04-04T09:21:36.397Z,90437.63
2023-04-04T09:24:21.249Z,90439.53
2023-04-04T09:27:06.401Z,90445.06
2023-04-04T09:29:51.331Z,90434.72
2023-04-04T09:32:36.302Z,90428.16
2023-04-04T09:35:21.291Z,90438.88
2023-04-04T09:38:06.584Z,90438.47
2023-04-04T09:40:51.389Z,90444.38
2023-04-04T09:43:36.375Z,90431.94
2023-04-04T09:46:21.379Z,90432.09
2023-04-04T09:49:05.937Z,90432.91
2023-04-04T09:51:51.004Z,90433.84
2023-04-04T09:54:40.257Z,90427.13
2023-04-04T09:57:30.319Z,90422.44
2023-04-04T10:00:15.387Z,90426.81
2023-04-04T10:03:00.407Z,90419.09
2023-04-04T10:05:45.389Z,90415.88
2023-04-04T10:08:30.383Z,90410.78
2023-04-04T10:11:15.370Z,90419.91
2023-04-04T10:14:00.264Z,90408.69
2023-04-04T10:16:44.961Z,90410.50
2023-04-04T10:19:29.775Z,90412.34
2023-04-04T10:22:14.559Z,90400.94
2023-04-04T10:24:59.693Z,90403.84
2023-04-04T10:27:44.488Z,90408.00
2023-04-04T10:30:29.409Z,90404.00
2023-04-04T10:33:14.477Z,90395.63
2023-04-04T10:35:59.438Z,90391.41
2023-04-04T10:38:44.413Z,90395.03
2023-04-04T10:41:29.174Z,90387.94
2023-04-04T10:44:14.076Z,90391.44
2023-04-04T10:46:58.922Z,90389.47
2023-04-04T10:49:44.045Z,90391.25
2023-04-04T10:52:28.953Z,90379.09
2023-04-04T10:55:13.841Z,90380.72
2023-04-04T10:57:58.757Z,90376.59
2023-04-04T11:00:43.769Z,90371.03
2023-04-04T11:03:28.827Z,90368.53
2023-04-04T11:06:13.609Z,90369.41
2023-04-04T11:08:58.589Z,90371.13
2023-04-04T11:11:43.517Z,90362.28
2023-04-04T11:14:28.444Z,90369.75
2023-04-04T11:17:13.528Z,90362.75
2023-04-04T11:19:58.413Z,90361.50
2023-04-04T11:22:43.583Z,90358.44
2023-04-04T11:25:28.600Z,90359.31
2023-04-04T11:28:13.532Z,90348.31
2023-04-04T11:30:58.333Z,90341.56
2023-04-04T11:33:43.325Z,90343.16
2023-04-04T11:36:28.178Z,90342.84
2023-04-04T11:39:17.066Z,90334.09
2023-04-04T11:42:02.108Z,90333.94
2023-04-04T11:44:47.027Z,90334.63
2023-04-04T11:47:31.858Z,90328.63
2023-04-04T11:50:17.230Z,90327.88
2023-04-04T11:53:02.236Z,90320.88
2023-04-04T11:55:47.486Z,90331.88
2023-04-04T11:58:32.149Z,90324.84
2023-04-04T12:01:17.037Z,90322.75
2023-04-04T12:04:02.071Z,90328.06
2023-04-04T12:06:46.750Z,90324.84
2023-04-04T12:09:31.444Z,90316.84
2023-04-04T12:12:16.555Z,90310.91
2023-04-04T12:15:10.819Z,90313.75
2023-04-04T12:18:01.852Z,90305.88
2023-04-04T12:20:46.987Z,90311.69
2023-04-04T12:23:32.866Z,90307.28
2023-04-04T12:26:17.606Z,90306.53
2023-04-04T12:29:02.614Z,90299.81
2023-04-04T12:31:47.655Z,90303.56
2023-04-04T12:34:32.405Z,90297.75
2023-04-04T12:37:17.319Z,90302.53
2023-04-04T12:40:02.242Z,90300.19
2023-04-04T12:42:47.240Z,90294.69
2023-04-04T12:45:32.144Z,90295.78
2023-04-04T12:48:16.956Z,90292.31
2023-04-04T12:51:01.736Z,90288.75
2023-04-04T12:53:46.992Z,90287.75
2023-04-04T12:56:31.735Z,90286.38
2023-04-04T12:59:16.513Z,90287.75
2023-04-04T13:02:01.480Z,90282.66
2023-04-04T13:04:46.642Z,90280.34
2023-04-04T13:07:31.606Z,90282.56
2023-04-04T13:10:16.499Z,90281.44
2023-04-04T13:13:01.465Z,90275.16
2023-04-04T13:15:46.117Z,90274.13
2023-04-04T13:18:30.988Z,90277.25
2023-04-04T13:21:15.962Z,90269.38
2023-04-04T13:24:00.624Z,90267.59
2023-04-04T13:26:45.508Z,90267.47
2023-04-04T13:29:30.692Z,90262.94
2023-04-04T13:32:15.538Z,90262.72
2023-04-04T13:35:00.427Z,90258.72
2023-04-04T13:37:45.208Z,90261.03
2023-04-04T13:40:30.024Z,90257.66
2023-04-04T13:43:14.925Z,90259.13
2023-04-04T13:45:59.776Z,90252.94
2023-04-04T13:48:44.556Z,90251.03
2023-04-04T13:51:29.339Z,90259.69
2023-04-04T13:54:14.340Z,90258.19
2023-04-04T13:56:58.985Z,90254.19
2023-04-04T13:59:43.953Z,90249.97
2023-04-04T14:02:28.962Z,90253.66
2023-04-04T14:05:13.842Z,90246.91
2023-04-04T14:07:58.706Z,90250.81
2023-04-04T14:10:43.648Z,90253.34
2023-04-04T14:13:28.600Z,90253.25
2023-04-04T14:16:13.622Z,90257.88
2023-04-04T14:18:58.884Z,90259.16
2023-04-04T14:21:43.747Z,90250.72
2023-04-04T14:24:28.603Z,90253.84
2023-04-04T14:27:13.352Z,90255.00
2023-04-04T14:29:58.410Z,90257.06
2023-04-04T14:32:43.325Z,90255.66
2023-04-04T14:35:28.096Z,90259.38
2023-04-04T14:38:13.040Z,90262.00
2023-04-04T14:40:57.908Z,90254.75
2023-04-04T14:43:42.932Z,90245.31
2023-04-04T14:46:27.850Z,90250.94
2023-04-04T14:49:12.754Z,90260.22
2023-04-04T14:51:57.593Z,90257.47
2023-04-04T14:54:42.553Z,90257.72
2023-04-04T14:57:28.702Z,90251.97
2023-04-04T15:00:14.004Z,90256.63
2023-04-04T15:02:58.855Z,90262.28
2023-04-04T15:05:44.078Z,90266.72
2023-04-04T15:08:28.811Z,90260.28
2023-04-04T15:11:13.578Z,90254.94
2023-04-04T15:13:58.611Z,90260.34
2023-04-04T15:16:43.196Z,90268.91
2023-04-04T15:19:28.219Z,90256.78
2023-04-04T15:22:13.083Z,90256.06
2023-04-04T15:24:58.004Z,90259.72
2023-04-04T15:27:43.059Z,90264.03
2023-04-04T15:30:27.988Z,90266.97
2023-04-04T15:33:13.061Z,90266.88
2023-04-04T15:35:57.739Z,90267.50
2023-04-04T15:38:42.622Z,90264.25
2023-04-04T15:41:27.385Z,90273.63
2023-04-04T15:44:12.235Z,90270.38
2023-04-04T15:46:57.064Z,90277.56
2023-04-04T15:49:41.997Z,90278.09
2023-04-04T15:52:26.878Z,90270.16
2023-04-04T15:55:11.957Z,90279.03
2023-04-04T15:57:56.971Z,90286.03
2023-04-04T16:00:41.906Z,90284.00
2023-04-04T16:03:27.295Z,90280.88
2023-04-04T16:06:12.034Z,90289.22
2023-04-04T16:08:56.939Z,90293.13
2023-04-04T16:11:41.797Z,90289.97
2023-04-04T16:14:26.845Z,90289.03
2023-04-04T16:17:11.792Z,90293.03
2023-04-04T16:19:56.773Z,90294.66
2023-04-04T16:22:42.502Z,90289.88
2023-04-04T16:25:27.453Z,90289.88
2023-04-04T16:28:12.400Z,90293.75
2023-04-04T16:30:57.280Z,90298.63
2023-04-04T16:33:42.363Z,90295.44
2023-04-04T16:36:27.323Z,90295.66
2023-04-04T16:39:12.112Z,90299.47
2023-04-04T16:41:57.172Z,90299.25
2023-04-04T16:44:42.024Z,90301.78
2023-04-04T16:47:28.550Z,90300.53
2023-04-04T16:50:13.543Z,90304.63
2023-04-04T16:52:58.462Z,90302.19
2023-04-04T16:55:43.412Z,90306.13
2023-04-04T16:58:28.336Z,90301.03
2023-04-04T17:01:13.339Z,90307.56
2023-04-04T17:03:58.334Z,90306.94
2023-04-04T17:06:43.192Z,90309.03
2023-04-04T17:09:27.964Z,90307.44
2023-04-04T17:12:12.824Z,90310.69
2023-04-04T17:14:57.581Z,90307.44
2023-04-04T17:17:42.453Z,90320.19
2023-04-04T17:20:29.528Z,90314.47
2023-04-04T17:23:15.083Z,90318.59
2023-04-04T17:26:00.201Z,90321.94
2023-04-04T17:28:44.985Z,90321.69
2023-04-04T17:31:29.835Z,90338.88
2023-04-04T17:34:14.741Z,90332.44
2023-04-04T17:36:59.843Z,90327.75
2023-04-04T17:39:45.600Z,90333.09
2023-04-04T17:42:30.792Z,90329.28
2023-04-04T17:45:15.736Z,90342.03
2023-04-04T17:48:00.592Z,90342.66
2023-04-04T17:50:45.499Z,90334.34
2023-04-04T17:53:30.282Z,90338.16
2023-04-04T17:56:14.989Z,90337.03
2023-04-04T17:58:59.948Z,90351.75
2023-04-04T18:01:44.685Z,90350.88
2023-04-04T18:04:29.539Z,90350.25
2023-04-04T18:07:14.434Z,90350.53
2023-04-04T18:09:59.738Z,90359.03
2023-04-04T18:12:44.601Z,90359.63
2023-04-04T18:15:29.555Z,90361.22
2023-04-04T18:18:14.297Z,90367.19
2023-04-04T18:20:59.330Z,90368.81
2023-04-04T18:23:44.228Z,90384.06
2023-04-04T18:26:29.168Z,90383.03
2023-04-04T18:29:14.202Z,90388.16
2023-04-04T18:31:59.145Z,90390.69
2023-04-04T18:34:44.067Z,90396.72
2023-04-04T18:37:28.800Z,90405.19
2023-04-04T18:40:13.803Z,90412.22
2023-04-04T18:42:58.578Z,90416.72
2023-04-04T18:45:43.513Z,90424.97
2023-04-04T18:48:28.435Z,90420.94
2023-04-04T18:51:13.305Z,90432.19
2023-04-04T18:53:58.146Z,90431.75
2023-04-04T18:56:42.976Z,90443.19
2023-04-04T18:59:28.081Z,90443.75
2023-04-04T19:02:12.784Z,90446.00
2023-04-04T19:04:57.721Z,90441.09
2023-04-04T19:07:42.588Z,90449.03
2023-04-04T19:10:27.557Z,90451.28
2023-04-04T19:13:12.398Z,90453.31
2023-04-04T19:15:57.290Z,90456.81
2023-04-04T19:18:42.212Z,90461.78
2023-04-04T19:21:27.165Z,90468.22
2023-04-04T19:24:12.020Z,90465.78
2023-04-04T19:26:56.540Z,90473.53
2023-04-04T19:29:41.423Z,90479.97
2023-04-04T19:32:26.195Z,90483.44
2023-04-04T19:35:11.019Z,90484.00
2023-04-04T19:37:55.885Z,90494.66
2023-04-04T19:40:40.881Z,90494.41
2023-04-04T19:43:25.854Z,90502.34
2023-04-04T19:46:10.879Z,90508.09
2023-04-04T19:48:55.679Z,90506.84
2023-04-04T19:51:40.286Z,90502.88
2023-04-04T19:54:25.184Z,90516.28
2023-04-04T19:57:10.110Z,90516.78
2023-04-04T19:59:54.891Z,90513.31
2023-04-04T20:02:39.873Z,90515.28
2023-04-04T20:05:24.760Z,90519.00
2023-04-04T20:08:09.576Z,90525.19
2023-04-04T20:10:54.432Z,90526.44
2023-04-04T20:13:39.359Z,90529.16
2023-04-04T20:16:24.233Z,90531.88
2023-04-04T20:19:09.292Z,90533.13
2023-04-04T20:21:54.110Z,90533.66
2023-04-04T20:24:39.019Z,90542.06
2023-04-04T20:27:24.194Z,90543.28
2023-04-04T20:30:09.083Z,90537.59
2023-04-04T20:32:54.050Z,90546.50
2023-04-04T20:35:38.816Z,90555.41
2023-04-04T20:38:23.890Z,90553.19
2023-04-04T20:41:08.880Z,90553.44
2023-04-04T20:43:53.895Z,90552.94
2023-04-04T20:46:38.730Z,90561.09
2023-04-04T20:49:23.699Z,90561.59
2023-04-04T20:52:08.597Z,90561.84
2023-04-04T20:54:53.505Z,90565.28
2023-04-04T20:57:38.439Z,90563.06
2023-04-04T21:00:23.148Z,90567.25
2023-04-04T21:03:08.030Z,90566.03
2023-04-04T21:05:52.782Z,90569.19
2023-04-04T21:08:37.848Z,90568.91
2023-04-04T21:11:22.731Z,90570.13
2023-04-04T21:14:07.612Z,90578.06
2023-04-04T21:16:52.304Z,90572.63
2023-04-04T21:19:37.337Z,90583.53
2023-04-04T21:22:23.168Z,90587.47
2023-04-04T21:25:08.329Z,90588.66
2023-04-04T21:27:53.396Z,90587.19
2023-04-04T21:30:38.402Z,90590.38
2023-04-04T21:33:23.163Z,90593.84
2023-04-04T21:36:08.120Z,90593.84
2023-04-04T21:38:53.065Z,90596.56
2023-04-04T21:41:37.774Z,90600.03
2023-04-04T21:44:22.514Z,90607.41
2023-04-04T21:47:07.533Z,90599.72
2023-04-04T21:49:52.305Z,90609.63
2023-04-04T21:52:37.367Z,90613.06
2023-04-04T21:55:22.048Z,90597.25
2023-04-04T21:58:06.977Z,90600.66
2023-04-04T22:00:51.871Z,90610.06
2023-04-04T22:03:36.798Z,90601.44
2023-04-04T22:06:23.083Z,90619.50
2023-04-04T22:09:07.901Z,90621.69
2023-04-04T22:11:52.844Z,90622.44
2023-04-04T22:14:37.593Z,90623.63
2023-04-04T22:17:22.669Z,90619.38
2023-04-04T22:20:07.549Z,90611.16
2023-04-04T22:22:52.377Z,90613.34
2023-04-04T22:25:37.160Z,90609.69
2023-04-04T22:28:22.095Z,90611.97
2023-04-04T22:31:06.945Z,90612.97
2023-04-04T22:33:51.806Z,90611.22
2023-04-04T22:36:40.340Z,90611.91
2023-04-04T22:39:25.301Z,90614.91
2023-04-04T22:42:10.084Z,90616.66
2023-04-04T22:44:55.023Z,90611.50
2023-04-04T22:47:39.965Z,90620.13
2023-04-04T22:50:24.884Z,90608.53
2023-04-04T22:53:09.827Z,90614.22
2023-04-04T22:55:54.920Z,90611.72
2023-04-04T22:58:39.897Z,90611.97
2023-04-04T23:01:24.881Z,90606.00
2023-04-04T23:04:09.772Z,90606.00
2023-04-04T23:06:54.820Z,90607.50
2023-04-04T23:09:39.730Z,90615.38
2023-04-04T23:12:24.611Z,90617.38
2023-04-04T23:15:09.703Z,90610.22
2023-04-04T23:17:54.571Z,90617.63
2023-04-04T23:20:39.676Z,90612.91
2023-04-04T23:23:24.788Z,90613.88
2023-04-04T23:26:09.591Z,90615.06
2023-04-04T23:28:54.426Z,90615.00
2023-04-04T23:31:39.486Z,90612.53
2023-04-04T23:34:24.329Z,90608.34
2023-04-04T23:37:09.209Z,90615.22
2023-04-04T23:39:54.262Z,90617.44
2023-04-04T23:42:39.270Z,90619.59
2023-04-04T23:45:24.371Z,90625.03
2023-04-04T23:48:09.061Z,90620.56
2023-04-04T23:50:54.147Z,90625.03
2023-04-04T23:53:38.880Z,90623.75
2023-04-04T23:56:23.763Z,90623.75
2023-04-04T23:59:08.496Z,90627.22
